<?xml version="1.0" encoding="UTF-8" standalone="no" ?>
<gpx xmlns="http://www.topografix.com/GPX/1/1" xmlns:xsi="http://www.w3.org/2001/XMLSchema-instance" xsi:schemaLocation="http://www.topografix.com/GPX/1/1 http://www.topografix.com/GPX/1/1/gpx.xsd" version="1.1" creator="VisuGPX - https://www.visugpx.com">
  <metadata>
    <name>samedi 25 mars 2015</name>
    <desc><![CDATA[cambillou_ vaqué_ frégate- ste rose - darel]]></desc>
  </metadata>
  <trk>
    <name><![CDATA[ACTIVE LOG 001]]></name>
    <trkseg>
      <trkpt lat="44.23283" lon="0.68299">
        <ele>105.88244628906</ele>
        <time>2015-03-28T07:59:29Z</time>
      </trkpt>
      <trkpt lat="44.23282" lon="0.68282">
        <ele>62.622924804688</ele>
        <time>2015-03-28T07:59:48Z</time>
      </trkpt>
      <trkpt lat="44.23276" lon="0.68263">
        <ele>58.297119140625</ele>
        <time>2015-03-28T08:00:23Z</time>
      </trkpt>
      <trkpt lat="44.23267" lon="0.68228">
        <ele>57.335815429688</ele>
        <time>2015-03-28T08:00:49Z</time>
      </trkpt>
      <trkpt lat="44.23259" lon="0.682">
        <ele>58.777709960938</ele>
        <time>2015-03-28T08:01:08Z</time>
      </trkpt>
      <trkpt lat="44.23254" lon="0.68194">
        <ele>58.297119140625</ele>
        <time>2015-03-28T08:01:14Z</time>
      </trkpt>
      <trkpt lat="44.23225" lon="0.68179">
        <ele>61.181030273438</ele>
        <time>2015-03-28T08:01:41Z</time>
      </trkpt>
      <trkpt lat="44.23215" lon="0.68171">
        <ele>63.584350585938</ele>
        <time>2015-03-28T08:01:59Z</time>
      </trkpt>
      <trkpt lat="44.23215" lon="0.68164">
        <ele>61.661743164062</ele>
        <time>2015-03-28T08:02:07Z</time>
      </trkpt>
      <trkpt lat="44.23209" lon="0.68156">
        <ele>62.142333984375</ele>
        <time>2015-03-28T08:02:25Z</time>
      </trkpt>
      <trkpt lat="44.23199" lon="0.68148">
        <ele>61.661743164062</ele>
        <time>2015-03-28T08:02:44Z</time>
      </trkpt>
      <trkpt lat="44.23182" lon="0.68137">
        <ele>60.2197265625</ele>
        <time>2015-03-28T08:03:03Z</time>
      </trkpt>
      <trkpt lat="44.2317" lon="0.6813">
        <ele>60.700317382812</ele>
        <time>2015-03-28T08:03:16Z</time>
      </trkpt>
      <trkpt lat="44.23158" lon="0.68125">
        <ele>61.181030273438</ele>
        <time>2015-03-28T08:03:28Z</time>
      </trkpt>
      <trkpt lat="44.23141" lon="0.68109">
        <ele>58.777709960938</ele>
        <time>2015-03-28T08:03:44Z</time>
      </trkpt>
      <trkpt lat="44.2312" lon="0.68087">
        <ele>57.816528320312</ele>
        <time>2015-03-28T08:04:07Z</time>
      </trkpt>
      <trkpt lat="44.23107" lon="0.68073">
        <ele>56.855102539062</ele>
        <time>2015-03-28T08:04:21Z</time>
      </trkpt>
      <trkpt lat="44.23087" lon="0.6805">
        <ele>58.297119140625</ele>
        <time>2015-03-28T08:04:42Z</time>
      </trkpt>
      <trkpt lat="44.23073" lon="0.68035">
        <ele>58.777709960938</ele>
        <time>2015-03-28T08:04:57Z</time>
      </trkpt>
      <trkpt lat="44.23062" lon="0.68021">
        <ele>59.739135742188</ele>
        <time>2015-03-28T08:05:09Z</time>
      </trkpt>
      <trkpt lat="44.23052" lon="0.68007">
        <ele>60.700317382812</ele>
        <time>2015-03-28T08:05:20Z</time>
      </trkpt>
      <trkpt lat="44.2304" lon="0.67996">
        <ele>62.142333984375</ele>
        <time>2015-03-28T08:05:36Z</time>
      </trkpt>
      <trkpt lat="44.2303" lon="0.67995">
        <ele>63.584350585938</ele>
        <time>2015-03-28T08:05:47Z</time>
      </trkpt>
      <trkpt lat="44.23025" lon="0.67981">
        <ele>62.142333984375</ele>
        <time>2015-03-28T08:05:56Z</time>
      </trkpt>
      <trkpt lat="44.23017" lon="0.67946">
        <ele>63.103637695312</ele>
        <time>2015-03-28T08:06:17Z</time>
      </trkpt>
      <trkpt lat="44.23008" lon="0.67921">
        <ele>62.622924804688</ele>
        <time>2015-03-28T08:06:34Z</time>
      </trkpt>
      <trkpt lat="44.22997" lon="0.67898">
        <ele>61.181030273438</ele>
        <time>2015-03-28T08:06:51Z</time>
      </trkpt>
      <trkpt lat="44.22988" lon="0.67871">
        <ele>61.181030273438</ele>
        <time>2015-03-28T08:07:10Z</time>
      </trkpt>
      <trkpt lat="44.22985" lon="0.67859">
        <ele>60.2197265625</ele>
        <time>2015-03-28T08:07:24Z</time>
      </trkpt>
      <trkpt lat="44.22983" lon="0.67852">
        <ele>61.181030273438</ele>
        <time>2015-03-28T08:07:30Z</time>
      </trkpt>
      <trkpt lat="44.22973" lon="0.67826">
        <ele>61.661743164062</ele>
        <time>2015-03-28T08:07:49Z</time>
      </trkpt>
      <trkpt lat="44.22969" lon="0.67809">
        <ele>65.0263671875</ele>
        <time>2015-03-28T08:08:01Z</time>
      </trkpt>
      <trkpt lat="44.22959" lon="0.67782">
        <ele>68.390869140625</ele>
        <time>2015-03-28T08:08:18Z</time>
      </trkpt>
      <trkpt lat="44.22948" lon="0.67754">
        <ele>70.794189453125</ele>
        <time>2015-03-28T08:08:39Z</time>
      </trkpt>
      <trkpt lat="44.22939" lon="0.67737">
        <ele>70.3134765625</ele>
        <time>2015-03-28T08:08:52Z</time>
      </trkpt>
      <trkpt lat="44.22928" lon="0.67716">
        <ele>71.755493164062</ele>
        <time>2015-03-28T08:09:06Z</time>
      </trkpt>
      <trkpt lat="44.22916" lon="0.67694">
        <ele>69.832885742188</ele>
        <time>2015-03-28T08:09:25Z</time>
      </trkpt>
      <trkpt lat="44.22907" lon="0.67672">
        <ele>68.390869140625</ele>
        <time>2015-03-28T08:09:43Z</time>
      </trkpt>
      <trkpt lat="44.22896" lon="0.67646">
        <ele>67.4296875</ele>
        <time>2015-03-28T08:10:05Z</time>
      </trkpt>
      <trkpt lat="44.2289" lon="0.67636">
        <ele>67.4296875</ele>
        <time>2015-03-28T08:10:13Z</time>
      </trkpt>
      <trkpt lat="44.22879" lon="0.6764">
        <ele>66.948974609375</ele>
        <time>2015-03-28T08:10:20Z</time>
      </trkpt>
      <trkpt lat="44.22875" lon="0.67646">
        <ele>66.948974609375</ele>
        <time>2015-03-28T08:10:24Z</time>
      </trkpt>
      <trkpt lat="44.22859" lon="0.67667">
        <ele>68.390869140625</ele>
        <time>2015-03-28T08:10:44Z</time>
      </trkpt>
      <trkpt lat="44.22848" lon="0.67686">
        <ele>69.832885742188</ele>
        <time>2015-03-28T08:11:00Z</time>
      </trkpt>
      <trkpt lat="44.22839" lon="0.67703">
        <ele>69.832885742188</ele>
        <time>2015-03-28T08:11:14Z</time>
      </trkpt>
      <trkpt lat="44.22824" lon="0.67728">
        <ele>68.87158203125</ele>
        <time>2015-03-28T08:11:36Z</time>
      </trkpt>
      <trkpt lat="44.2282" lon="0.67735">
        <ele>67.910278320312</ele>
        <time>2015-03-28T08:11:42Z</time>
      </trkpt>
      <trkpt lat="44.22804" lon="0.67736">
        <ele>68.87158203125</ele>
        <time>2015-03-28T08:12:02Z</time>
      </trkpt>
      <trkpt lat="44.22803" lon="0.67734">
        <ele>68.87158203125</ele>
        <time>2015-03-28T08:12:03Z</time>
      </trkpt>
      <trkpt lat="44.22787" lon="0.67716">
        <ele>70.794189453125</ele>
        <time>2015-03-28T08:12:22Z</time>
      </trkpt>
      <trkpt lat="44.22782" lon="0.67716">
        <ele>71.27490234375</ele>
        <time>2015-03-28T08:12:28Z</time>
      </trkpt>
      <trkpt lat="44.22756" lon="0.67731">
        <ele>74.158813476562</ele>
        <time>2015-03-28T08:12:57Z</time>
      </trkpt>
      <trkpt lat="44.22734" lon="0.67748">
        <ele>76.081420898438</ele>
        <time>2015-03-28T08:13:25Z</time>
      </trkpt>
      <trkpt lat="44.22725" lon="0.67754">
        <ele>77.5234375</ele>
        <time>2015-03-28T08:13:36Z</time>
      </trkpt>
      <trkpt lat="44.22709" lon="0.67749">
        <ele>78.484741210938</ele>
        <time>2015-03-28T08:14:00Z</time>
      </trkpt>
      <trkpt lat="44.22694" lon="0.67735">
        <ele>81.849365234375</ele>
        <time>2015-03-28T08:14:25Z</time>
      </trkpt>
      <trkpt lat="44.22687" lon="0.67748">
        <ele>84.252685546875</ele>
        <time>2015-03-28T08:14:38Z</time>
      </trkpt>
      <trkpt lat="44.22672" lon="0.67781">
        <ele>85.213989257812</ele>
        <time>2015-03-28T08:15:04Z</time>
      </trkpt>
      <trkpt lat="44.22654" lon="0.67783">
        <ele>86.656005859375</ele>
        <time>2015-03-28T08:15:22Z</time>
      </trkpt>
      <trkpt lat="44.22635" lon="0.67768">
        <ele>88.098022460938</ele>
        <time>2015-03-28T08:15:44Z</time>
      </trkpt>
      <trkpt lat="44.22615" lon="0.67768">
        <ele>87.6171875</ele>
        <time>2015-03-28T08:16:03Z</time>
      </trkpt>
      <trkpt lat="44.22596" lon="0.67797">
        <ele>88.098022460938</ele>
        <time>2015-03-28T08:16:29Z</time>
      </trkpt>
      <trkpt lat="44.22584" lon="0.67824">
        <ele>88.098022460938</ele>
        <time>2015-03-28T08:16:50Z</time>
      </trkpt>
      <trkpt lat="44.2258" lon="0.67827">
        <ele>87.6171875</ele>
        <time>2015-03-28T08:16:54Z</time>
      </trkpt>
      <trkpt lat="44.22575" lon="0.67828">
        <ele>88.098022460938</ele>
        <time>2015-03-28T08:16:59Z</time>
      </trkpt>
      <trkpt lat="44.22567" lon="0.67816">
        <ele>90.020629882812</ele>
        <time>2015-03-28T08:17:14Z</time>
      </trkpt>
      <trkpt lat="44.22557" lon="0.67798">
        <ele>90.98193359375</ele>
        <time>2015-03-28T08:17:28Z</time>
      </trkpt>
      <trkpt lat="44.22545" lon="0.6778">
        <ele>89.539916992188</ele>
        <time>2015-03-28T08:17:42Z</time>
      </trkpt>
      <trkpt lat="44.22537" lon="0.6777">
        <ele>84.252685546875</ele>
        <time>2015-03-28T08:17:52Z</time>
      </trkpt>
      <trkpt lat="44.22521" lon="0.67752">
        <ele>83.77197265625</ele>
        <time>2015-03-28T08:18:07Z</time>
      </trkpt>
      <trkpt lat="44.22506" lon="0.67731">
        <ele>82.330078125</ele>
        <time>2015-03-28T08:18:25Z</time>
      </trkpt>
      <trkpt lat="44.22492" lon="0.67706">
        <ele>83.77197265625</ele>
        <time>2015-03-28T08:18:44Z</time>
      </trkpt>
      <trkpt lat="44.22481" lon="0.67681">
        <ele>83.77197265625</ele>
        <time>2015-03-28T08:19:03Z</time>
      </trkpt>
      <trkpt lat="44.2247" lon="0.67662">
        <ele>84.252685546875</ele>
        <time>2015-03-28T08:19:17Z</time>
      </trkpt>
      <trkpt lat="44.22461" lon="0.67635">
        <ele>86.17529296875</ele>
        <time>2015-03-28T08:19:38Z</time>
      </trkpt>
      <trkpt lat="44.2246" lon="0.67619">
        <ele>88.098022460938</ele>
        <time>2015-03-28T08:19:52Z</time>
      </trkpt>
      <trkpt lat="44.22449" lon="0.67596">
        <ele>91.462524414062</ele>
        <time>2015-03-28T08:20:13Z</time>
      </trkpt>
      <trkpt lat="44.22443" lon="0.67581">
        <ele>90.501342773438</ele>
        <time>2015-03-28T08:20:26Z</time>
      </trkpt>
      <trkpt lat="44.22437" lon="0.67552">
        <ele>93.385131835938</ele>
        <time>2015-03-28T08:20:47Z</time>
      </trkpt>
      <trkpt lat="44.22434" lon="0.67528">
        <ele>96.749877929688</ele>
        <time>2015-03-28T08:21:04Z</time>
      </trkpt>
      <trkpt lat="44.22435" lon="0.67524">
        <ele>96.269287109375</ele>
        <time>2015-03-28T08:21:07Z</time>
      </trkpt>
      <trkpt lat="44.22431" lon="0.67494">
        <ele>97.23046875</ele>
        <time>2015-03-28T08:21:28Z</time>
      </trkpt>
      <trkpt lat="44.22427" lon="0.67459">
        <ele>98.19189453125</ele>
        <time>2015-03-28T08:21:53Z</time>
      </trkpt>
      <trkpt lat="44.2242" lon="0.67425">
        <ele>97.23046875</ele>
        <time>2015-03-28T08:22:17Z</time>
      </trkpt>
      <trkpt lat="44.22418" lon="0.67417">
        <ele>96.749877929688</ele>
        <time>2015-03-28T08:22:23Z</time>
      </trkpt>
      <trkpt lat="44.22414" lon="0.6739">
        <ele>95.788452148438</ele>
        <time>2015-03-28T08:22:43Z</time>
      </trkpt>
      <trkpt lat="44.22415" lon="0.67371">
        <ele>93.865844726562</ele>
        <time>2015-03-28T08:22:59Z</time>
      </trkpt>
      <trkpt lat="44.22416" lon="0.67358">
        <ele>93.865844726562</ele>
        <time>2015-03-28T08:23:15Z</time>
      </trkpt>
      <trkpt lat="44.22415" lon="0.67347">
        <ele>93.385131835938</ele>
        <time>2015-03-28T08:23:34Z</time>
      </trkpt>
      <trkpt lat="44.22417" lon="0.67331">
        <ele>92.904541015625</ele>
        <time>2015-03-28T08:23:49Z</time>
      </trkpt>
      <trkpt lat="44.22419" lon="0.67313">
        <ele>92.423950195312</ele>
        <time>2015-03-28T08:24:05Z</time>
      </trkpt>
      <trkpt lat="44.2242" lon="0.67297">
        <ele>91.943237304688</ele>
        <time>2015-03-28T08:24:23Z</time>
      </trkpt>
      <trkpt lat="44.22418" lon="0.67275">
        <ele>91.462524414062</ele>
        <time>2015-03-28T08:24:42Z</time>
      </trkpt>
      <trkpt lat="44.22416" lon="0.67261">
        <ele>90.501342773438</ele>
        <time>2015-03-28T08:24:55Z</time>
      </trkpt>
      <trkpt lat="44.2241" lon="0.67248">
        <ele>89.539916992188</ele>
        <time>2015-03-28T08:25:08Z</time>
      </trkpt>
      <trkpt lat="44.22405" lon="0.6723">
        <ele>89.539916992188</ele>
        <time>2015-03-28T08:25:22Z</time>
      </trkpt>
      <trkpt lat="44.22399" lon="0.67212">
        <ele>86.17529296875</ele>
        <time>2015-03-28T08:25:36Z</time>
      </trkpt>
      <trkpt lat="44.22394" lon="0.67202">
        <ele>85.213989257812</ele>
        <time>2015-03-28T08:25:47Z</time>
      </trkpt>
      <trkpt lat="44.22393" lon="0.67188">
        <ele>85.213989257812</ele>
        <time>2015-03-28T08:26:05Z</time>
      </trkpt>
      <trkpt lat="44.22392" lon="0.67186">
        <ele>85.213989257812</ele>
        <time>2015-03-28T08:26:07Z</time>
      </trkpt>
      <trkpt lat="44.2239" lon="0.67178">
        <ele>86.17529296875</ele>
        <time>2015-03-28T08:26:11Z</time>
      </trkpt>
      <trkpt lat="44.22384" lon="0.67163">
        <ele>89.539916992188</ele>
        <time>2015-03-28T08:26:27Z</time>
      </trkpt>
      <trkpt lat="44.22379" lon="0.67161">
        <ele>90.98193359375</ele>
        <time>2015-03-28T08:26:44Z</time>
      </trkpt>
      <trkpt lat="44.22382" lon="0.6715">
        <ele>90.98193359375</ele>
        <time>2015-03-28T08:26:53Z</time>
      </trkpt>
      <trkpt lat="44.22381" lon="0.67142">
        <ele>91.462524414062</ele>
        <time>2015-03-28T08:26:59Z</time>
      </trkpt>
      <trkpt lat="44.22377" lon="0.67122">
        <ele>90.020629882812</ele>
        <time>2015-03-28T08:27:16Z</time>
      </trkpt>
      <trkpt lat="44.22368" lon="0.67106">
        <ele>90.98193359375</ele>
        <time>2015-03-28T08:27:31Z</time>
      </trkpt>
      <trkpt lat="44.22363" lon="0.6708">
        <ele>89.539916992188</ele>
        <time>2015-03-28T08:27:51Z</time>
      </trkpt>
      <trkpt lat="44.22363" lon="0.67074">
        <ele>90.501342773438</ele>
        <time>2015-03-28T08:27:54Z</time>
      </trkpt>
      <trkpt lat="44.22357" lon="0.67052">
        <ele>88.578735351562</ele>
        <time>2015-03-28T08:28:09Z</time>
      </trkpt>
      <trkpt lat="44.22354" lon="0.67044">
        <ele>89.539916992188</ele>
        <time>2015-03-28T08:28:16Z</time>
      </trkpt>
      <trkpt lat="44.22352" lon="0.67036">
        <ele>90.501342773438</ele>
        <time>2015-03-28T08:28:23Z</time>
      </trkpt>
      <trkpt lat="44.22346" lon="0.67021">
        <ele>91.462524414062</ele>
        <time>2015-03-28T08:28:40Z</time>
      </trkpt>
      <trkpt lat="44.22344" lon="0.67012">
        <ele>89.539916992188</ele>
        <time>2015-03-28T08:28:53Z</time>
      </trkpt>
      <trkpt lat="44.22346" lon="0.66999">
        <ele>91.462524414062</ele>
        <time>2015-03-28T08:29:06Z</time>
      </trkpt>
      <trkpt lat="44.22345" lon="0.66985">
        <ele>92.904541015625</ele>
        <time>2015-03-28T08:29:19Z</time>
      </trkpt>
      <trkpt lat="44.22341" lon="0.66973">
        <ele>93.385131835938</ele>
        <time>2015-03-28T08:29:32Z</time>
      </trkpt>
      <trkpt lat="44.22338" lon="0.66959">
        <ele>96.749877929688</ele>
        <time>2015-03-28T08:29:45Z</time>
      </trkpt>
      <trkpt lat="44.22338" lon="0.6695">
        <ele>97.711181640625</ele>
        <time>2015-03-28T08:29:52Z</time>
      </trkpt>
      <trkpt lat="44.22334" lon="0.6694">
        <ele>98.672485351562</ele>
        <time>2015-03-28T08:30:06Z</time>
      </trkpt>
      <trkpt lat="44.2233" lon="0.66932">
        <ele>97.711181640625</ele>
        <time>2015-03-28T08:30:21Z</time>
      </trkpt>
      <trkpt lat="44.22329" lon="0.66917">
        <ele>96.269287109375</ele>
        <time>2015-03-28T08:30:31Z</time>
      </trkpt>
      <trkpt lat="44.22328" lon="0.66903">
        <ele>97.711181640625</ele>
        <time>2015-03-28T08:30:43Z</time>
      </trkpt>
      <trkpt lat="44.22324" lon="0.66892">
        <ele>96.269287109375</ele>
        <time>2015-03-28T08:30:50Z</time>
      </trkpt>
      <trkpt lat="44.22321" lon="0.66884">
        <ele>95.788452148438</ele>
        <time>2015-03-28T08:31:07Z</time>
      </trkpt>
      <trkpt lat="44.2232" lon="0.6688">
        <ele>96.749877929688</ele>
        <time>2015-03-28T08:31:34Z</time>
      </trkpt>
      <trkpt lat="44.22318" lon="0.66861">
        <ele>94.346557617188</ele>
        <time>2015-03-28T08:32:01Z</time>
      </trkpt>
      <trkpt lat="44.22317" lon="0.66853">
        <ele>93.865844726562</ele>
        <time>2015-03-28T08:32:06Z</time>
      </trkpt>
      <trkpt lat="44.2231" lon="0.6684">
        <ele>92.904541015625</ele>
        <time>2015-03-28T08:32:15Z</time>
      </trkpt>
      <trkpt lat="44.22299" lon="0.66827">
        <ele>90.98193359375</ele>
        <time>2015-03-28T08:32:28Z</time>
      </trkpt>
      <trkpt lat="44.22284" lon="0.6682">
        <ele>91.462524414062</ele>
        <time>2015-03-28T08:32:43Z</time>
      </trkpt>
      <trkpt lat="44.22274" lon="0.6681">
        <ele>88.098022460938</ele>
        <time>2015-03-28T08:32:56Z</time>
      </trkpt>
      <trkpt lat="44.22265" lon="0.66793">
        <ele>87.6171875</ele>
        <time>2015-03-28T08:33:08Z</time>
      </trkpt>
      <trkpt lat="44.22256" lon="0.66775">
        <ele>84.252685546875</ele>
        <time>2015-03-28T08:33:22Z</time>
      </trkpt>
      <trkpt lat="44.22244" lon="0.66754">
        <ele>82.330078125</ele>
        <time>2015-03-28T08:33:40Z</time>
      </trkpt>
      <trkpt lat="44.22231" lon="0.66731">
        <ele>81.849365234375</ele>
        <time>2015-03-28T08:33:57Z</time>
      </trkpt>
      <trkpt lat="44.22219" lon="0.66705">
        <ele>82.810791015625</ele>
        <time>2015-03-28T08:34:15Z</time>
      </trkpt>
      <trkpt lat="44.22206" lon="0.6668">
        <ele>80.88818359375</ele>
        <time>2015-03-28T08:34:34Z</time>
      </trkpt>
      <trkpt lat="44.22195" lon="0.66661">
        <ele>80.407470703125</ele>
        <time>2015-03-28T08:34:50Z</time>
      </trkpt>
      <trkpt lat="44.22186" lon="0.66646">
        <ele>77.042846679688</ele>
        <time>2015-03-28T08:35:04Z</time>
      </trkpt>
      <trkpt lat="44.22178" lon="0.66628">
        <ele>74.158813476562</ele>
        <time>2015-03-28T08:35:19Z</time>
      </trkpt>
      <trkpt lat="44.22169" lon="0.66606">
        <ele>72.716918945312</ele>
        <time>2015-03-28T08:35:37Z</time>
      </trkpt>
      <trkpt lat="44.2217" lon="0.66602">
        <ele>71.27490234375</ele>
        <time>2015-03-28T08:35:42Z</time>
      </trkpt>
      <trkpt lat="44.2219" lon="0.66589">
        <ele>67.4296875</ele>
        <time>2015-03-28T08:36:04Z</time>
      </trkpt>
      <trkpt lat="44.2221" lon="0.66574">
        <ele>65.987670898438</ele>
        <time>2015-03-28T08:36:26Z</time>
      </trkpt>
      <trkpt lat="44.22229" lon="0.66559">
        <ele>65.0263671875</ele>
        <time>2015-03-28T08:36:46Z</time>
      </trkpt>
      <trkpt lat="44.22237" lon="0.66551">
        <ele>65.0263671875</ele>
        <time>2015-03-28T08:36:55Z</time>
      </trkpt>
      <trkpt lat="44.22252" lon="0.6654">
        <ele>63.584350585938</ele>
        <time>2015-03-28T08:37:09Z</time>
      </trkpt>
      <trkpt lat="44.22252" lon="0.66517">
        <ele>62.622924804688</ele>
        <time>2015-03-28T08:37:26Z</time>
      </trkpt>
      <trkpt lat="44.22243" lon="0.66491">
        <ele>63.584350585938</ele>
        <time>2015-03-28T08:37:47Z</time>
      </trkpt>
      <trkpt lat="44.22227" lon="0.66464">
        <ele>65.0263671875</ele>
        <time>2015-03-28T08:38:11Z</time>
      </trkpt>
      <trkpt lat="44.22205" lon="0.66458">
        <ele>65.0263671875</ele>
        <time>2015-03-28T08:38:33Z</time>
      </trkpt>
      <trkpt lat="44.22169" lon="0.66469">
        <ele>65.0263671875</ele>
        <time>2015-03-28T08:39:06Z</time>
      </trkpt>
      <trkpt lat="44.22163" lon="0.66467">
        <ele>65.987670898438</ele>
        <time>2015-03-28T08:39:12Z</time>
      </trkpt>
      <trkpt lat="44.22159" lon="0.66461">
        <ele>66.948974609375</ele>
        <time>2015-03-28T08:39:18Z</time>
      </trkpt>
      <trkpt lat="44.22144" lon="0.66433">
        <ele>70.3134765625</ele>
        <time>2015-03-28T08:39:45Z</time>
      </trkpt>
      <trkpt lat="44.22128" lon="0.6642">
        <ele>73.197631835938</ele>
        <time>2015-03-28T08:40:06Z</time>
      </trkpt>
      <trkpt lat="44.22109" lon="0.66412">
        <ele>76.081420898438</ele>
        <time>2015-03-28T08:40:28Z</time>
      </trkpt>
      <trkpt lat="44.22096" lon="0.66401">
        <ele>77.5234375</ele>
        <time>2015-03-28T08:40:50Z</time>
      </trkpt>
      <trkpt lat="44.22083" lon="0.66383">
        <ele>77.5234375</ele>
        <time>2015-03-28T08:41:13Z</time>
      </trkpt>
      <trkpt lat="44.22069" lon="0.66386">
        <ele>78.965454101562</ele>
        <time>2015-03-28T08:41:31Z</time>
      </trkpt>
      <trkpt lat="44.22057" lon="0.66396">
        <ele>80.407470703125</ele>
        <time>2015-03-28T08:41:48Z</time>
      </trkpt>
      <trkpt lat="44.22045" lon="0.6641">
        <ele>83.291381835938</ele>
        <time>2015-03-28T08:42:06Z</time>
      </trkpt>
      <trkpt lat="44.22032" lon="0.66422">
        <ele>87.136596679688</ele>
        <time>2015-03-28T08:42:28Z</time>
      </trkpt>
      <trkpt lat="44.22021" lon="0.66434">
        <ele>87.6171875</ele>
        <time>2015-03-28T08:42:46Z</time>
      </trkpt>
      <trkpt lat="44.22008" lon="0.66443">
        <ele>88.578735351562</ele>
        <time>2015-03-28T08:43:04Z</time>
      </trkpt>
      <trkpt lat="44.21985" lon="0.66458">
        <ele>88.578735351562</ele>
        <time>2015-03-28T08:43:30Z</time>
      </trkpt>
      <trkpt lat="44.21981" lon="0.66459">
        <ele>88.098022460938</ele>
        <time>2015-03-28T08:43:34Z</time>
      </trkpt>
      <trkpt lat="44.21959" lon="0.66471">
        <ele>90.020629882812</ele>
        <time>2015-03-28T08:43:57Z</time>
      </trkpt>
      <trkpt lat="44.21939" lon="0.66482">
        <ele>90.98193359375</ele>
        <time>2015-03-28T08:44:20Z</time>
      </trkpt>
      <trkpt lat="44.21935" lon="0.66485">
        <ele>91.462524414062</ele>
        <time>2015-03-28T08:44:25Z</time>
      </trkpt>
      <trkpt lat="44.21919" lon="0.66497">
        <ele>91.943237304688</ele>
        <time>2015-03-28T08:44:44Z</time>
      </trkpt>
      <trkpt lat="44.21891" lon="0.66521">
        <ele>94.346557617188</ele>
        <time>2015-03-28T08:45:17Z</time>
      </trkpt>
      <trkpt lat="44.21872" lon="0.66538">
        <ele>98.19189453125</ele>
        <time>2015-03-28T08:45:41Z</time>
      </trkpt>
      <trkpt lat="44.21861" lon="0.66547">
        <ele>98.672485351562</ele>
        <time>2015-03-28T08:45:53Z</time>
      </trkpt>
      <trkpt lat="44.21846" lon="0.66554">
        <ele>94.8271484375</ele>
        <time>2015-03-28T08:46:08Z</time>
      </trkpt>
      <trkpt lat="44.21829" lon="0.66565">
        <ele>95.307739257812</ele>
        <time>2015-03-28T08:46:27Z</time>
      </trkpt>
      <trkpt lat="44.21823" lon="0.6657">
        <ele>96.269287109375</ele>
        <time>2015-03-28T08:46:33Z</time>
      </trkpt>
      <trkpt lat="44.21809" lon="0.66579">
        <ele>98.19189453125</ele>
        <time>2015-03-28T08:46:48Z</time>
      </trkpt>
      <trkpt lat="44.21796" lon="0.66585">
        <ele>96.749877929688</ele>
        <time>2015-03-28T08:47:01Z</time>
      </trkpt>
      <trkpt lat="44.21777" lon="0.66596">
        <ele>97.23046875</ele>
        <time>2015-03-28T08:47:20Z</time>
      </trkpt>
      <trkpt lat="44.21757" lon="0.6661">
        <ele>98.19189453125</ele>
        <time>2015-03-28T08:47:40Z</time>
      </trkpt>
      <trkpt lat="44.21739" lon="0.66618">
        <ele>99.6337890625</ele>
        <time>2015-03-28T08:48:02Z</time>
      </trkpt>
      <trkpt lat="44.21739" lon="0.66618">
        <ele>99.6337890625</ele>
        <time>2015-03-28T08:48:38Z</time>
      </trkpt>
      <trkpt lat="44.21727" lon="0.66626">
        <ele>100.11450195312</ele>
        <time>2015-03-28T08:49:00Z</time>
      </trkpt>
      <trkpt lat="44.21705" lon="0.66631">
        <ele>102.037109375</ele>
        <time>2015-03-28T08:49:24Z</time>
      </trkpt>
      <trkpt lat="44.21686" lon="0.66639">
        <ele>103.95971679688</ele>
        <time>2015-03-28T08:49:46Z</time>
      </trkpt>
      <trkpt lat="44.21669" lon="0.66645">
        <ele>105.40173339844</ele>
        <time>2015-03-28T08:50:07Z</time>
      </trkpt>
      <trkpt lat="44.21653" lon="0.6664">
        <ele>106.84362792969</ele>
        <time>2015-03-28T08:50:28Z</time>
      </trkpt>
      <trkpt lat="44.21637" lon="0.6664">
        <ele>109.24694824219</ele>
        <time>2015-03-28T08:50:48Z</time>
      </trkpt>
      <trkpt lat="44.21624" lon="0.6664">
        <ele>112.13098144531</ele>
        <time>2015-03-28T08:51:08Z</time>
      </trkpt>
      <trkpt lat="44.21612" lon="0.66643">
        <ele>114.5341796875</ele>
        <time>2015-03-28T08:51:27Z</time>
      </trkpt>
      <trkpt lat="44.21601" lon="0.66643">
        <ele>117.89880371094</ele>
        <time>2015-03-28T08:51:46Z</time>
      </trkpt>
      <trkpt lat="44.21588" lon="0.66639">
        <ele>119.82141113281</ele>
        <time>2015-03-28T08:52:06Z</time>
      </trkpt>
      <trkpt lat="44.21574" lon="0.66637">
        <ele>122.22473144531</ele>
        <time>2015-03-28T08:52:25Z</time>
      </trkpt>
      <trkpt lat="44.2157" lon="0.66637">
        <ele>123.18615722656</ele>
        <time>2015-03-28T08:52:59Z</time>
      </trkpt>
      <trkpt lat="44.21564" lon="0.66639">
        <ele>125.10876464844</ele>
        <time>2015-03-28T08:53:12Z</time>
      </trkpt>
      <trkpt lat="44.21562" lon="0.66648">
        <ele>123.66674804688</ele>
        <time>2015-03-28T08:53:19Z</time>
      </trkpt>
      <trkpt lat="44.21549" lon="0.66651">
        <ele>119.82141113281</ele>
        <time>2015-03-28T08:53:40Z</time>
      </trkpt>
      <trkpt lat="44.21541" lon="0.66644">
        <ele>123.66674804688</ele>
        <time>2015-03-28T08:53:59Z</time>
      </trkpt>
      <trkpt lat="44.21531" lon="0.66639">
        <ele>125.10876464844</ele>
        <time>2015-03-28T08:54:15Z</time>
      </trkpt>
      <trkpt lat="44.21521" lon="0.66636">
        <ele>127.99255371094</ele>
        <time>2015-03-28T08:54:31Z</time>
      </trkpt>
      <trkpt lat="44.21517" lon="0.66639">
        <ele>127.99255371094</ele>
        <time>2015-03-28T08:54:55Z</time>
      </trkpt>
      <trkpt lat="44.2151" lon="0.66639">
        <ele>130.39599609375</ele>
        <time>2015-03-28T08:55:17Z</time>
      </trkpt>
      <trkpt lat="44.21504" lon="0.66639">
        <ele>132.31860351562</ele>
        <time>2015-03-28T08:55:40Z</time>
      </trkpt>
      <trkpt lat="44.21494" lon="0.66634">
        <ele>134.2412109375</ele>
        <time>2015-03-28T08:56:01Z</time>
      </trkpt>
      <trkpt lat="44.21488" lon="0.6663">
        <ele>136.16394042969</ele>
        <time>2015-03-28T08:56:20Z</time>
      </trkpt>
      <trkpt lat="44.21481" lon="0.66624">
        <ele>138.08654785156</ele>
        <time>2015-03-28T08:56:39Z</time>
      </trkpt>
      <trkpt lat="44.2148" lon="0.66622">
        <ele>138.56726074219</ele>
        <time>2015-03-28T08:56:41Z</time>
      </trkpt>
      <trkpt lat="44.2147" lon="0.66613">
        <ele>142.41247558594</ele>
        <time>2015-03-28T08:57:01Z</time>
      </trkpt>
      <trkpt lat="44.21464" lon="0.66619">
        <ele>140.97045898438</ele>
        <time>2015-03-28T08:57:14Z</time>
      </trkpt>
      <trkpt lat="44.21461" lon="0.66629">
        <ele>143.37365722656</ele>
        <time>2015-03-28T08:57:44Z</time>
      </trkpt>
      <trkpt lat="44.21459" lon="0.6663">
        <ele>144.33520507812</ele>
        <time>2015-03-28T08:59:01Z</time>
      </trkpt>
      <trkpt lat="44.21455" lon="0.66636">
        <ele>144.33520507812</ele>
        <time>2015-03-28T08:59:22Z</time>
      </trkpt>
      <trkpt lat="44.21443" lon="0.66651">
        <ele>145.77709960938</ele>
        <time>2015-03-28T08:59:46Z</time>
      </trkpt>
      <trkpt lat="44.21428" lon="0.66669">
        <ele>148.66101074219</ele>
        <time>2015-03-28T09:00:11Z</time>
      </trkpt>
      <trkpt lat="44.21427" lon="0.6667">
        <ele>148.66101074219</ele>
        <time>2015-03-28T09:00:13Z</time>
      </trkpt>
      <trkpt lat="44.21414" lon="0.66684">
        <ele>151.544921875</ele>
        <time>2015-03-28T09:00:33Z</time>
      </trkpt>
      <trkpt lat="44.21398" lon="0.66705">
        <ele>152.50634765625</ele>
        <time>2015-03-28T09:00:57Z</time>
      </trkpt>
      <trkpt lat="44.21385" lon="0.66725">
        <ele>152.98693847656</ele>
        <time>2015-03-28T09:01:19Z</time>
      </trkpt>
      <trkpt lat="44.21368" lon="0.66749">
        <ele>153.94836425781</ele>
        <time>2015-03-28T09:01:45Z</time>
      </trkpt>
      <trkpt lat="44.21357" lon="0.66753">
        <ele>153.46765136719</ele>
        <time>2015-03-28T09:02:06Z</time>
      </trkpt>
      <trkpt lat="44.21357" lon="0.66746">
        <ele>152.98693847656</ele>
        <time>2015-03-28T09:02:14Z</time>
      </trkpt>
      <trkpt lat="44.21359" lon="0.66721">
        <ele>156.83215332031</ele>
        <time>2015-03-28T09:02:31Z</time>
      </trkpt>
      <trkpt lat="44.21359" lon="0.66681">
        <ele>152.98693847656</ele>
        <time>2015-03-28T09:03:00Z</time>
      </trkpt>
      <trkpt lat="44.21364" lon="0.66642">
        <ele>150.10302734375</ele>
        <time>2015-03-28T09:03:28Z</time>
      </trkpt>
      <trkpt lat="44.2137" lon="0.66597">
        <ele>146.73840332031</ele>
        <time>2015-03-28T09:03:59Z</time>
      </trkpt>
      <trkpt lat="44.21378" lon="0.66563">
        <ele>146.2578125</ele>
        <time>2015-03-28T09:04:24Z</time>
      </trkpt>
      <trkpt lat="44.21388" lon="0.66512">
        <ele>143.85437011719</ele>
        <time>2015-03-28T09:05:00Z</time>
      </trkpt>
      <trkpt lat="44.21395" lon="0.66478">
        <ele>143.37365722656</ele>
        <time>2015-03-28T09:05:26Z</time>
      </trkpt>
      <trkpt lat="44.21406" lon="0.66433">
        <ele>141.93176269531</ele>
        <time>2015-03-28T09:05:58Z</time>
      </trkpt>
      <trkpt lat="44.214" lon="0.66418">
        <ele>142.41247558594</ele>
        <time>2015-03-28T09:06:15Z</time>
      </trkpt>
      <trkpt lat="44.21384" lon="0.66417">
        <ele>142.41247558594</ele>
        <time>2015-03-28T09:06:31Z</time>
      </trkpt>
      <trkpt lat="44.21368" lon="0.66416">
        <ele>139.52844238281</ele>
        <time>2015-03-28T09:06:47Z</time>
      </trkpt>
      <trkpt lat="44.21345" lon="0.66414">
        <ele>142.41247558594</ele>
        <time>2015-03-28T09:07:09Z</time>
      </trkpt>
      <trkpt lat="44.21325" lon="0.66405">
        <ele>139.0478515625</ele>
        <time>2015-03-28T09:07:31Z</time>
      </trkpt>
      <trkpt lat="44.21299" lon="0.66395">
        <ele>143.37365722656</ele>
        <time>2015-03-28T09:07:57Z</time>
      </trkpt>
      <trkpt lat="44.21291" lon="0.66393">
        <ele>145.29638671875</ele>
        <time>2015-03-28T09:08:04Z</time>
      </trkpt>
      <trkpt lat="44.21285" lon="0.66377">
        <ele>140.97045898438</ele>
        <time>2015-03-28T09:08:20Z</time>
      </trkpt>
      <trkpt lat="44.21278" lon="0.66363">
        <ele>138.08654785156</ele>
        <time>2015-03-28T09:08:31Z</time>
      </trkpt>
      <trkpt lat="44.21268" lon="0.66355">
        <ele>137.12524414062</ele>
        <time>2015-03-28T09:08:47Z</time>
      </trkpt>
      <trkpt lat="44.21248" lon="0.66351">
        <ele>135.20251464844</ele>
        <time>2015-03-28T09:09:07Z</time>
      </trkpt>
      <trkpt lat="44.21222" lon="0.66352">
        <ele>136.16394042969</ele>
        <time>2015-03-28T09:09:32Z</time>
      </trkpt>
      <trkpt lat="44.21206" lon="0.66347">
        <ele>140.48986816406</ele>
        <time>2015-03-28T09:09:48Z</time>
      </trkpt>
      <trkpt lat="44.21199" lon="0.66353">
        <ele>140.00915527344</ele>
        <time>2015-03-28T09:10:04Z</time>
      </trkpt>
      <trkpt lat="44.21191" lon="0.66356">
        <ele>139.0478515625</ele>
        <time>2015-03-28T09:10:31Z</time>
      </trkpt>
      <trkpt lat="44.21177" lon="0.66359">
        <ele>140.97045898438</ele>
        <time>2015-03-28T09:10:46Z</time>
      </trkpt>
      <trkpt lat="44.21163" lon="0.66368">
        <ele>142.89306640625</ele>
        <time>2015-03-28T09:11:03Z</time>
      </trkpt>
      <trkpt lat="44.21158" lon="0.66375">
        <ele>141.93176269531</ele>
        <time>2015-03-28T09:11:13Z</time>
      </trkpt>
      <trkpt lat="44.21151" lon="0.66393">
        <ele>145.29638671875</ele>
        <time>2015-03-28T09:11:30Z</time>
      </trkpt>
      <trkpt lat="44.21154" lon="0.6641">
        <ele>147.21899414062</ele>
        <time>2015-03-28T09:11:46Z</time>
      </trkpt>
      <trkpt lat="44.21161" lon="0.66434">
        <ele>149.62231445312</ele>
        <time>2015-03-28T09:12:05Z</time>
      </trkpt>
      <trkpt lat="44.21168" lon="0.66451">
        <ele>150.10302734375</ele>
        <time>2015-03-28T09:12:22Z</time>
      </trkpt>
      <trkpt lat="44.21168" lon="0.66471">
        <ele>149.62231445312</ele>
        <time>2015-03-28T09:12:37Z</time>
      </trkpt>
      <trkpt lat="44.21167" lon="0.66474">
        <ele>149.1416015625</ele>
        <time>2015-03-28T09:13:00Z</time>
      </trkpt>
      <trkpt lat="44.21159" lon="0.66481">
        <ele>151.544921875</ele>
        <time>2015-03-28T09:13:22Z</time>
      </trkpt>
      <trkpt lat="44.21152" lon="0.66492">
        <ele>153.94836425781</ele>
        <time>2015-03-28T09:13:37Z</time>
      </trkpt>
      <trkpt lat="44.21141" lon="0.66502">
        <ele>154.42895507812</ele>
        <time>2015-03-28T09:13:51Z</time>
      </trkpt>
      <trkpt lat="44.21131" lon="0.66514">
        <ele>154.42895507812</ele>
        <time>2015-03-28T09:14:04Z</time>
      </trkpt>
      <trkpt lat="44.21116" lon="0.66524">
        <ele>150.10302734375</ele>
        <time>2015-03-28T09:14:19Z</time>
      </trkpt>
      <trkpt lat="44.21112" lon="0.66526">
        <ele>149.1416015625</ele>
        <time>2015-03-28T09:14:23Z</time>
      </trkpt>
      <trkpt lat="44.21109" lon="0.66529">
        <ele>148.66101074219</ele>
        <time>2015-03-28T09:14:26Z</time>
      </trkpt>
      <trkpt lat="44.21098" lon="0.66533">
        <ele>146.73840332031</ele>
        <time>2015-03-28T09:14:37Z</time>
      </trkpt>
      <trkpt lat="44.21079" lon="0.6654">
        <ele>144.81579589844</ele>
        <time>2015-03-28T09:14:56Z</time>
      </trkpt>
      <trkpt lat="44.21064" lon="0.6655">
        <ele>145.77709960938</ele>
        <time>2015-03-28T09:15:12Z</time>
      </trkpt>
      <trkpt lat="44.21057" lon="0.66559">
        <ele>147.21899414062</ele>
        <time>2015-03-28T09:15:21Z</time>
      </trkpt>
      <trkpt lat="44.21054" lon="0.66561">
        <ele>147.69970703125</ele>
        <time>2015-03-28T09:15:25Z</time>
      </trkpt>
      <trkpt lat="44.21047" lon="0.6657">
        <ele>146.73840332031</ele>
        <time>2015-03-28T09:15:33Z</time>
      </trkpt>
      <trkpt lat="44.21036" lon="0.66581">
        <ele>147.69970703125</ele>
        <time>2015-03-28T09:15:46Z</time>
      </trkpt>
      <trkpt lat="44.21024" lon="0.66597">
        <ele>147.69970703125</ele>
        <time>2015-03-28T09:16:02Z</time>
      </trkpt>
      <trkpt lat="44.21009" lon="0.66611">
        <ele>149.62231445312</ele>
        <time>2015-03-28T09:16:19Z</time>
      </trkpt>
      <trkpt lat="44.20983" lon="0.66609">
        <ele>149.62231445312</ele>
        <time>2015-03-28T09:16:42Z</time>
      </trkpt>
      <trkpt lat="44.2096" lon="0.66604">
        <ele>150.10302734375</ele>
        <time>2015-03-28T09:17:02Z</time>
      </trkpt>
      <trkpt lat="44.20956" lon="0.66601">
        <ele>151.06420898438</ele>
        <time>2015-03-28T09:17:19Z</time>
      </trkpt>
      <trkpt lat="44.20954" lon="0.66606">
        <ele>152.50634765625</ele>
        <time>2015-03-28T09:17:43Z</time>
      </trkpt>
      <trkpt lat="44.20953" lon="0.66607">
        <ele>152.50634765625</ele>
        <time>2015-03-28T09:17:44Z</time>
      </trkpt>
      <trkpt lat="44.20952" lon="0.66613">
        <ele>152.50634765625</ele>
        <time>2015-03-28T09:17:48Z</time>
      </trkpt>
      <trkpt lat="44.20951" lon="0.6662">
        <ele>152.50634765625</ele>
        <time>2015-03-28T09:17:53Z</time>
      </trkpt>
      <trkpt lat="44.20946" lon="0.66634">
        <ele>152.02575683594</ele>
        <time>2015-03-28T09:18:04Z</time>
      </trkpt>
      <trkpt lat="44.20939" lon="0.66657">
        <ele>155.87097167969</ele>
        <time>2015-03-28T09:18:24Z</time>
      </trkpt>
      <trkpt lat="44.2093" lon="0.66674">
        <ele>153.46765136719</ele>
        <time>2015-03-28T09:18:41Z</time>
      </trkpt>
      <trkpt lat="44.20923" lon="0.6669">
        <ele>153.46765136719</ele>
        <time>2015-03-28T09:18:57Z</time>
      </trkpt>
      <trkpt lat="44.20915" lon="0.66715">
        <ele>150.58361816406</ele>
        <time>2015-03-28T09:19:16Z</time>
      </trkpt>
      <trkpt lat="44.20901" lon="0.66748">
        <ele>149.62231445312</ele>
        <time>2015-03-28T09:19:44Z</time>
      </trkpt>
      <trkpt lat="44.20891" lon="0.66773">
        <ele>150.10302734375</ele>
        <time>2015-03-28T09:20:06Z</time>
      </trkpt>
      <trkpt lat="44.20894" lon="0.66794">
        <ele>148.18041992188</ele>
        <time>2015-03-28T09:20:25Z</time>
      </trkpt>
      <trkpt lat="44.20896" lon="0.66796">
        <ele>148.18041992188</ele>
        <time>2015-03-28T09:20:28Z</time>
      </trkpt>
      <trkpt lat="44.20907" lon="0.66808">
        <ele>147.69970703125</ele>
        <time>2015-03-28T09:20:44Z</time>
      </trkpt>
      <trkpt lat="44.20908" lon="0.6681">
        <ele>147.69970703125</ele>
        <time>2015-03-28T09:20:46Z</time>
      </trkpt>
      <trkpt lat="44.20926" lon="0.66833">
        <ele>146.73840332031</ele>
        <time>2015-03-28T09:21:09Z</time>
      </trkpt>
      <trkpt lat="44.20933" lon="0.66841">
        <ele>146.2578125</ele>
        <time>2015-03-28T09:21:19Z</time>
      </trkpt>
      <trkpt lat="44.20949" lon="0.66862">
        <ele>145.77709960938</ele>
        <time>2015-03-28T09:21:42Z</time>
      </trkpt>
      <trkpt lat="44.2097" lon="0.66884">
        <ele>144.33520507812</ele>
        <time>2015-03-28T09:22:07Z</time>
      </trkpt>
      <trkpt lat="44.20986" lon="0.66899">
        <ele>144.33520507812</ele>
        <time>2015-03-28T09:22:26Z</time>
      </trkpt>
      <trkpt lat="44.20998" lon="0.66912">
        <ele>144.81579589844</ele>
        <time>2015-03-28T09:22:43Z</time>
      </trkpt>
      <trkpt lat="44.21011" lon="0.66925">
        <ele>145.29638671875</ele>
        <time>2015-03-28T09:23:00Z</time>
      </trkpt>
      <trkpt lat="44.21015" lon="0.6693">
        <ele>145.77709960938</ele>
        <time>2015-03-28T09:23:07Z</time>
      </trkpt>
      <trkpt lat="44.21028" lon="0.66949">
        <ele>151.06420898438</ele>
        <time>2015-03-28T09:23:27Z</time>
      </trkpt>
      <trkpt lat="44.21037" lon="0.6696">
        <ele>151.06420898438</ele>
        <time>2015-03-28T09:23:39Z</time>
      </trkpt>
      <trkpt lat="44.21039" lon="0.66964">
        <ele>150.58361816406</ele>
        <time>2015-03-28T09:23:42Z</time>
      </trkpt>
      <trkpt lat="44.21042" lon="0.66967">
        <ele>150.10302734375</ele>
        <time>2015-03-28T09:23:46Z</time>
      </trkpt>
      <trkpt lat="44.21052" lon="0.66986">
        <ele>149.62231445312</ele>
        <time>2015-03-28T09:24:03Z</time>
      </trkpt>
      <trkpt lat="44.2106" lon="0.67001">
        <ele>149.62231445312</ele>
        <time>2015-03-28T09:24:16Z</time>
      </trkpt>
      <trkpt lat="44.21072" lon="0.67019">
        <ele>148.18041992188</ele>
        <time>2015-03-28T09:24:34Z</time>
      </trkpt>
      <trkpt lat="44.21089" lon="0.67041">
        <ele>146.2578125</ele>
        <time>2015-03-28T09:24:57Z</time>
      </trkpt>
      <trkpt lat="44.2109" lon="0.67046">
        <ele>146.73840332031</ele>
        <time>2015-03-28T09:25:00Z</time>
      </trkpt>
      <trkpt lat="44.21093" lon="0.67049">
        <ele>146.73840332031</ele>
        <time>2015-03-28T09:25:04Z</time>
      </trkpt>
      <trkpt lat="44.21094" lon="0.67051">
        <ele>146.73840332031</ele>
        <time>2015-03-28T09:25:06Z</time>
      </trkpt>
      <trkpt lat="44.21097" lon="0.67055">
        <ele>145.77709960938</ele>
        <time>2015-03-28T09:25:10Z</time>
      </trkpt>
      <trkpt lat="44.21117" lon="0.67079">
        <ele>145.77709960938</ele>
        <time>2015-03-28T09:25:37Z</time>
      </trkpt>
      <trkpt lat="44.21132" lon="0.67099">
        <ele>147.69970703125</ele>
        <time>2015-03-28T09:26:01Z</time>
      </trkpt>
      <trkpt lat="44.21139" lon="0.67119">
        <ele>149.1416015625</ele>
        <time>2015-03-28T09:26:20Z</time>
      </trkpt>
      <trkpt lat="44.21146" lon="0.67132">
        <ele>149.62231445312</ele>
        <time>2015-03-28T09:26:34Z</time>
      </trkpt>
      <trkpt lat="44.21148" lon="0.67141">
        <ele>149.62231445312</ele>
        <time>2015-03-28T09:26:54Z</time>
      </trkpt>
      <trkpt lat="44.21149" lon="0.67143">
        <ele>150.10302734375</ele>
        <time>2015-03-28T09:27:21Z</time>
      </trkpt>
      <trkpt lat="44.21152" lon="0.67153">
        <ele>150.58361816406</ele>
        <time>2015-03-28T09:28:53Z</time>
      </trkpt>
      <trkpt lat="44.21156" lon="0.67161">
        <ele>150.58361816406</ele>
        <time>2015-03-28T09:29:04Z</time>
      </trkpt>
      <trkpt lat="44.21168" lon="0.67189">
        <ele>149.1416015625</ele>
        <time>2015-03-28T09:29:28Z</time>
      </trkpt>
      <trkpt lat="44.2118" lon="0.6722">
        <ele>146.2578125</ele>
        <time>2015-03-28T09:29:54Z</time>
      </trkpt>
      <trkpt lat="44.21187" lon="0.67254">
        <ele>146.2578125</ele>
        <time>2015-03-28T09:30:18Z</time>
      </trkpt>
      <trkpt lat="44.2119" lon="0.67263">
        <ele>147.21899414062</ele>
        <time>2015-03-28T09:30:24Z</time>
      </trkpt>
      <trkpt lat="44.21192" lon="0.67272">
        <ele>147.21899414062</ele>
        <time>2015-03-28T09:30:31Z</time>
      </trkpt>
      <trkpt lat="44.21199" lon="0.67299">
        <ele>146.2578125</ele>
        <time>2015-03-28T09:30:52Z</time>
      </trkpt>
      <trkpt lat="44.21204" lon="0.67325">
        <ele>146.73840332031</ele>
        <time>2015-03-28T09:31:12Z</time>
      </trkpt>
      <trkpt lat="44.21211" lon="0.67351">
        <ele>147.21899414062</ele>
        <time>2015-03-28T09:31:33Z</time>
      </trkpt>
      <trkpt lat="44.21217" lon="0.67388">
        <ele>147.69970703125</ele>
        <time>2015-03-28T09:31:59Z</time>
      </trkpt>
      <trkpt lat="44.21218" lon="0.67396">
        <ele>147.69970703125</ele>
        <time>2015-03-28T09:32:04Z</time>
      </trkpt>
      <trkpt lat="44.21224" lon="0.67428">
        <ele>147.69970703125</ele>
        <time>2015-03-28T09:32:26Z</time>
      </trkpt>
      <trkpt lat="44.21235" lon="0.67455">
        <ele>147.21899414062</ele>
        <time>2015-03-28T09:32:49Z</time>
      </trkpt>
      <trkpt lat="44.21239" lon="0.67461">
        <ele>147.21899414062</ele>
        <time>2015-03-28T09:32:54Z</time>
      </trkpt>
      <trkpt lat="44.21242" lon="0.67467">
        <ele>146.73840332031</ele>
        <time>2015-03-28T09:33:00Z</time>
      </trkpt>
      <trkpt lat="44.21246" lon="0.6747">
        <ele>147.21899414062</ele>
        <time>2015-03-28T09:33:04Z</time>
      </trkpt>
      <trkpt lat="44.21252" lon="0.67478">
        <ele>147.21899414062</ele>
        <time>2015-03-28T09:33:12Z</time>
      </trkpt>
      <trkpt lat="44.21259" lon="0.67489">
        <ele>147.21899414062</ele>
        <time>2015-03-28T09:33:22Z</time>
      </trkpt>
      <trkpt lat="44.21261" lon="0.67492">
        <ele>147.21899414062</ele>
        <time>2015-03-28T09:33:25Z</time>
      </trkpt>
      <trkpt lat="44.21263" lon="0.67496">
        <ele>147.69970703125</ele>
        <time>2015-03-28T09:33:29Z</time>
      </trkpt>
      <trkpt lat="44.21267" lon="0.675">
        <ele>146.73840332031</ele>
        <time>2015-03-28T09:33:33Z</time>
      </trkpt>
      <trkpt lat="44.21273" lon="0.67504">
        <ele>147.69970703125</ele>
        <time>2015-03-28T09:33:40Z</time>
      </trkpt>
      <trkpt lat="44.21278" lon="0.67508">
        <ele>147.21899414062</ele>
        <time>2015-03-28T09:33:46Z</time>
      </trkpt>
      <trkpt lat="44.21293" lon="0.67524">
        <ele>145.29638671875</ele>
        <time>2015-03-28T09:34:05Z</time>
      </trkpt>
      <trkpt lat="44.21298" lon="0.67533">
        <ele>144.81579589844</ele>
        <time>2015-03-28T09:34:13Z</time>
      </trkpt>
      <trkpt lat="44.21311" lon="0.67545">
        <ele>143.85437011719</ele>
        <time>2015-03-28T09:34:30Z</time>
      </trkpt>
      <trkpt lat="44.21315" lon="0.67551">
        <ele>145.29638671875</ele>
        <time>2015-03-28T09:34:35Z</time>
      </trkpt>
      <trkpt lat="44.21317" lon="0.67553">
        <ele>145.77709960938</ele>
        <time>2015-03-28T09:34:37Z</time>
      </trkpt>
      <trkpt lat="44.21323" lon="0.67573">
        <ele>143.85437011719</ele>
        <time>2015-03-28T09:34:52Z</time>
      </trkpt>
      <trkpt lat="44.21328" lon="0.67588">
        <ele>145.77709960938</ele>
        <time>2015-03-28T09:35:03Z</time>
      </trkpt>
      <trkpt lat="44.21336" lon="0.67621">
        <ele>145.77709960938</ele>
        <time>2015-03-28T09:35:25Z</time>
      </trkpt>
      <trkpt lat="44.21339" lon="0.67642">
        <ele>145.29638671875</ele>
        <time>2015-03-28T09:35:38Z</time>
      </trkpt>
      <trkpt lat="44.21346" lon="0.67673">
        <ele>146.73840332031</ele>
        <time>2015-03-28T09:35:58Z</time>
      </trkpt>
      <trkpt lat="44.21357" lon="0.67707">
        <ele>147.69970703125</ele>
        <time>2015-03-28T09:36:22Z</time>
      </trkpt>
      <trkpt lat="44.21367" lon="0.67743">
        <ele>148.66101074219</ele>
        <time>2015-03-28T09:36:47Z</time>
      </trkpt>
      <trkpt lat="44.21378" lon="0.6777">
        <ele>148.66101074219</ele>
        <time>2015-03-28T09:37:08Z</time>
      </trkpt>
      <trkpt lat="44.21389" lon="0.67802">
        <ele>148.66101074219</ele>
        <time>2015-03-28T09:37:31Z</time>
      </trkpt>
      <trkpt lat="44.21402" lon="0.67832">
        <ele>149.1416015625</ele>
        <time>2015-03-28T09:37:55Z</time>
      </trkpt>
      <trkpt lat="44.21417" lon="0.67868">
        <ele>148.66101074219</ele>
        <time>2015-03-28T09:38:21Z</time>
      </trkpt>
      <trkpt lat="44.21433" lon="0.67899">
        <ele>149.1416015625</ele>
        <time>2015-03-28T09:38:47Z</time>
      </trkpt>
      <trkpt lat="44.21441" lon="0.6792">
        <ele>150.58361816406</ele>
        <time>2015-03-28T09:39:04Z</time>
      </trkpt>
      <trkpt lat="44.21445" lon="0.67924">
        <ele>151.06420898438</ele>
        <time>2015-03-28T09:39:08Z</time>
      </trkpt>
      <trkpt lat="44.21461" lon="0.67912">
        <ele>153.46765136719</ele>
        <time>2015-03-28T09:39:25Z</time>
      </trkpt>
      <trkpt lat="44.21481" lon="0.67897">
        <ele>155.39025878906</ele>
        <time>2015-03-28T09:39:47Z</time>
      </trkpt>
      <trkpt lat="44.21493" lon="0.67886">
        <ele>152.98693847656</ele>
        <time>2015-03-28T09:40:02Z</time>
      </trkpt>
      <trkpt lat="44.21506" lon="0.67878">
        <ele>150.58361816406</ele>
        <time>2015-03-28T09:40:16Z</time>
      </trkpt>
      <trkpt lat="44.21518" lon="0.67868">
        <ele>150.10302734375</ele>
        <time>2015-03-28T09:40:29Z</time>
      </trkpt>
      <trkpt lat="44.21529" lon="0.67856">
        <ele>150.10302734375</ele>
        <time>2015-03-28T09:40:42Z</time>
      </trkpt>
      <trkpt lat="44.21531" lon="0.67854">
        <ele>150.58361816406</ele>
        <time>2015-03-28T09:40:44Z</time>
      </trkpt>
      <trkpt lat="44.21535" lon="0.67851">
        <ele>151.06420898438</ele>
        <time>2015-03-28T09:40:50Z</time>
      </trkpt>
      <trkpt lat="44.21539" lon="0.67846">
        <ele>152.02575683594</ele>
        <time>2015-03-28T09:40:55Z</time>
      </trkpt>
      <trkpt lat="44.21553" lon="0.67829">
        <ele>154.42895507812</ele>
        <time>2015-03-28T09:41:12Z</time>
      </trkpt>
      <trkpt lat="44.21564" lon="0.67813">
        <ele>157.31286621094</ele>
        <time>2015-03-28T09:41:28Z</time>
      </trkpt>
      <trkpt lat="44.21578" lon="0.6781">
        <ele>160.19689941406</ele>
        <time>2015-03-28T09:41:46Z</time>
      </trkpt>
      <trkpt lat="44.21587" lon="0.67815">
        <ele>162.60009765625</ele>
        <time>2015-03-28T09:41:58Z</time>
      </trkpt>
      <trkpt lat="44.216" lon="0.67833">
        <ele>165.48413085938</ele>
        <time>2015-03-28T09:42:16Z</time>
      </trkpt>
      <trkpt lat="44.21611" lon="0.67845">
        <ele>165.00341796875</ele>
        <time>2015-03-28T09:42:32Z</time>
      </trkpt>
      <trkpt lat="44.21616" lon="0.67846">
        <ele>163.08081054688</ele>
        <time>2015-03-28T09:42:36Z</time>
      </trkpt>
      <trkpt lat="44.21632" lon="0.67845">
        <ele>160.67749023438</ele>
        <time>2015-03-28T09:42:53Z</time>
      </trkpt>
      <trkpt lat="44.21649" lon="0.67844">
        <ele>160.19689941406</ele>
        <time>2015-03-28T09:43:12Z</time>
      </trkpt>
      <trkpt lat="44.21659" lon="0.67849">
        <ele>158.27416992188</ele>
        <time>2015-03-28T09:43:23Z</time>
      </trkpt>
      <trkpt lat="44.21669" lon="0.67849">
        <ele>158.27416992188</ele>
        <time>2015-03-28T09:43:37Z</time>
      </trkpt>
      <trkpt lat="44.21673" lon="0.67861">
        <ele>159.23547363281</ele>
        <time>2015-03-28T09:43:50Z</time>
      </trkpt>
      <trkpt lat="44.2169" lon="0.67862">
        <ele>160.67749023438</ele>
        <time>2015-03-28T09:44:08Z</time>
      </trkpt>
      <trkpt lat="44.21702" lon="0.67855">
        <ele>160.19689941406</ele>
        <time>2015-03-28T09:44:23Z</time>
      </trkpt>
      <trkpt lat="44.21708" lon="0.67871">
        <ele>160.67749023438</ele>
        <time>2015-03-28T09:44:35Z</time>
      </trkpt>
      <trkpt lat="44.2171" lon="0.67878">
        <ele>160.67749023438</ele>
        <time>2015-03-28T09:44:40Z</time>
      </trkpt>
      <trkpt lat="44.21722" lon="0.67886">
        <ele>161.158203125</ele>
        <time>2015-03-28T09:44:54Z</time>
      </trkpt>
      <trkpt lat="44.21729" lon="0.67895">
        <ele>160.19689941406</ele>
        <time>2015-03-28T09:45:04Z</time>
      </trkpt>
      <trkpt lat="44.21738" lon="0.6791">
        <ele>159.71618652344</ele>
        <time>2015-03-28T09:45:19Z</time>
      </trkpt>
      <trkpt lat="44.21751" lon="0.67919">
        <ele>159.23547363281</ele>
        <time>2015-03-28T09:45:32Z</time>
      </trkpt>
      <trkpt lat="44.21756" lon="0.6792">
        <ele>160.67749023438</ele>
        <time>2015-03-28T09:45:36Z</time>
      </trkpt>
      <trkpt lat="44.21759" lon="0.67925">
        <ele>160.19689941406</ele>
        <time>2015-03-28T09:45:41Z</time>
      </trkpt>
      <trkpt lat="44.21762" lon="0.67927">
        <ele>160.19689941406</ele>
        <time>2015-03-28T09:45:45Z</time>
      </trkpt>
      <trkpt lat="44.21769" lon="0.67931">
        <ele>160.67749023438</ele>
        <time>2015-03-28T09:45:51Z</time>
      </trkpt>
      <trkpt lat="44.21772" lon="0.67934">
        <ele>161.158203125</ele>
        <time>2015-03-28T09:45:56Z</time>
      </trkpt>
      <trkpt lat="44.21775" lon="0.67936">
        <ele>161.63891601562</ele>
        <time>2015-03-28T09:45:59Z</time>
      </trkpt>
      <trkpt lat="44.21777" lon="0.67937">
        <ele>161.63891601562</ele>
        <time>2015-03-28T09:46:01Z</time>
      </trkpt>
      <trkpt lat="44.21776" lon="0.67944">
        <ele>160.19689941406</ele>
        <time>2015-03-28T09:46:05Z</time>
      </trkpt>
      <trkpt lat="44.21785" lon="0.67955">
        <ele>159.71618652344</ele>
        <time>2015-03-28T09:46:20Z</time>
      </trkpt>
      <trkpt lat="44.21794" lon="0.67959">
        <ele>161.158203125</ele>
        <time>2015-03-28T09:46:32Z</time>
      </trkpt>
      <trkpt lat="44.21801" lon="0.67967">
        <ele>160.67749023438</ele>
        <time>2015-03-28T09:46:47Z</time>
      </trkpt>
      <trkpt lat="44.21801" lon="0.67975">
        <ele>158.27416992188</ele>
        <time>2015-03-28T09:46:53Z</time>
      </trkpt>
      <trkpt lat="44.21803" lon="0.67981">
        <ele>156.83215332031</ele>
        <time>2015-03-28T09:46:58Z</time>
      </trkpt>
      <trkpt lat="44.21812" lon="0.6799">
        <ele>156.83215332031</ele>
        <time>2015-03-28T09:47:10Z</time>
      </trkpt>
      <trkpt lat="44.2183" lon="0.67982">
        <ele>157.31286621094</ele>
        <time>2015-03-28T09:47:28Z</time>
      </trkpt>
      <trkpt lat="44.2184" lon="0.67983">
        <ele>156.3515625</ele>
        <time>2015-03-28T09:47:36Z</time>
      </trkpt>
      <trkpt lat="44.21842" lon="0.67993">
        <ele>156.3515625</ele>
        <time>2015-03-28T09:47:45Z</time>
      </trkpt>
      <trkpt lat="44.21853" lon="0.68001">
        <ele>157.31286621094</ele>
        <time>2015-03-28T09:47:58Z</time>
      </trkpt>
      <trkpt lat="44.21866" lon="0.68004">
        <ele>158.75476074219</ele>
        <time>2015-03-28T09:48:12Z</time>
      </trkpt>
      <trkpt lat="44.21878" lon="0.68006">
        <ele>159.23547363281</ele>
        <time>2015-03-28T09:48:22Z</time>
      </trkpt>
      <trkpt lat="44.21884" lon="0.68007">
        <ele>160.19689941406</ele>
        <time>2015-03-28T09:48:31Z</time>
      </trkpt>
      <trkpt lat="44.21887" lon="0.68019">
        <ele>162.11950683594</ele>
        <time>2015-03-28T09:48:47Z</time>
      </trkpt>
      <trkpt lat="44.21894" lon="0.6803">
        <ele>162.60009765625</ele>
        <time>2015-03-28T09:49:07Z</time>
      </trkpt>
      <trkpt lat="44.21897" lon="0.68036">
        <ele>162.11950683594</ele>
        <time>2015-03-28T09:49:14Z</time>
      </trkpt>
      <trkpt lat="44.21899" lon="0.68038">
        <ele>161.63891601562</ele>
        <time>2015-03-28T09:49:17Z</time>
      </trkpt>
      <trkpt lat="44.21912" lon="0.68044">
        <ele>160.19689941406</ele>
        <time>2015-03-28T09:49:28Z</time>
      </trkpt>
      <trkpt lat="44.21919" lon="0.68054">
        <ele>157.79357910156</ele>
        <time>2015-03-28T09:49:44Z</time>
      </trkpt>
      <trkpt lat="44.21925" lon="0.68056">
        <ele>158.27416992188</ele>
        <time>2015-03-28T09:49:50Z</time>
      </trkpt>
      <trkpt lat="44.21936" lon="0.6806">
        <ele>158.27416992188</ele>
        <time>2015-03-28T09:50:02Z</time>
      </trkpt>
      <trkpt lat="44.21935" lon="0.68079">
        <ele>159.23547363281</ele>
        <time>2015-03-28T09:50:18Z</time>
      </trkpt>
      <trkpt lat="44.21936" lon="0.6809">
        <ele>160.19689941406</ele>
        <time>2015-03-28T09:50:26Z</time>
      </trkpt>
      <trkpt lat="44.21936" lon="0.68097">
        <ele>160.67749023438</ele>
        <time>2015-03-28T09:50:29Z</time>
      </trkpt>
      <trkpt lat="44.21935" lon="0.68106">
        <ele>161.63891601562</ele>
        <time>2015-03-28T09:50:37Z</time>
      </trkpt>
      <trkpt lat="44.21935" lon="0.68125">
        <ele>162.11950683594</ele>
        <time>2015-03-28T09:50:49Z</time>
      </trkpt>
      <trkpt lat="44.21933" lon="0.68137">
        <ele>162.60009765625</ele>
        <time>2015-03-28T09:51:00Z</time>
      </trkpt>
      <trkpt lat="44.21934" lon="0.68141">
        <ele>164.52270507812</ele>
        <time>2015-03-28T09:51:09Z</time>
      </trkpt>
      <trkpt lat="44.21945" lon="0.68146">
        <ele>164.52270507812</ele>
        <time>2015-03-28T09:51:24Z</time>
      </trkpt>
      <trkpt lat="44.21955" lon="0.68153">
        <ele>162.11950683594</ele>
        <time>2015-03-28T09:51:38Z</time>
      </trkpt>
      <trkpt lat="44.21967" lon="0.68165">
        <ele>158.75476074219</ele>
        <time>2015-03-28T09:51:54Z</time>
      </trkpt>
      <trkpt lat="44.21979" lon="0.68173">
        <ele>158.75476074219</ele>
        <time>2015-03-28T09:52:09Z</time>
      </trkpt>
      <trkpt lat="44.21996" lon="0.68183">
        <ele>156.83215332031</ele>
        <time>2015-03-28T09:52:25Z</time>
      </trkpt>
      <trkpt lat="44.21999" lon="0.68191">
        <ele>155.39025878906</ele>
        <time>2015-03-28T09:52:39Z</time>
      </trkpt>
      <trkpt lat="44.22002" lon="0.68198">
        <ele>155.39025878906</ele>
        <time>2015-03-28T09:52:50Z</time>
      </trkpt>
      <trkpt lat="44.22" lon="0.68206">
        <ele>154.90954589844</ele>
        <time>2015-03-28T09:52:55Z</time>
      </trkpt>
      <trkpt lat="44.22002" lon="0.68219">
        <ele>153.46765136719</ele>
        <time>2015-03-28T09:53:09Z</time>
      </trkpt>
      <trkpt lat="44.22008" lon="0.68222">
        <ele>153.94836425781</ele>
        <time>2015-03-28T09:53:20Z</time>
      </trkpt>
      <trkpt lat="44.2201" lon="0.68225">
        <ele>153.46765136719</ele>
        <time>2015-03-28T09:53:23Z</time>
      </trkpt>
      <trkpt lat="44.22011" lon="0.68228">
        <ele>153.46765136719</ele>
        <time>2015-03-28T09:53:25Z</time>
      </trkpt>
      <trkpt lat="44.2201" lon="0.68231">
        <ele>153.94836425781</ele>
        <time>2015-03-28T09:53:27Z</time>
      </trkpt>
      <trkpt lat="44.22004" lon="0.68255">
        <ele>152.98693847656</ele>
        <time>2015-03-28T09:53:39Z</time>
      </trkpt>
      <trkpt lat="44.22006" lon="0.6826">
        <ele>152.50634765625</ele>
        <time>2015-03-28T09:53:44Z</time>
      </trkpt>
      <trkpt lat="44.22011" lon="0.68269">
        <ele>153.94836425781</ele>
        <time>2015-03-28T09:53:52Z</time>
      </trkpt>
      <trkpt lat="44.2201" lon="0.68282">
        <ele>153.46765136719</ele>
        <time>2015-03-28T09:53:59Z</time>
      </trkpt>
      <trkpt lat="44.22014" lon="0.68282">
        <ele>153.94836425781</ele>
        <time>2015-03-28T09:54:01Z</time>
      </trkpt>
      <trkpt lat="44.22026" lon="0.68291">
        <ele>155.87097167969</ele>
        <time>2015-03-28T09:54:16Z</time>
      </trkpt>
      <trkpt lat="44.22037" lon="0.68298">
        <ele>156.3515625</ele>
        <time>2015-03-28T09:54:31Z</time>
      </trkpt>
      <trkpt lat="44.22048" lon="0.68294">
        <ele>157.79357910156</ele>
        <time>2015-03-28T09:54:43Z</time>
      </trkpt>
      <trkpt lat="44.22054" lon="0.68288">
        <ele>156.83215332031</ele>
        <time>2015-03-28T09:54:48Z</time>
      </trkpt>
      <trkpt lat="44.22065" lon="0.68288">
        <ele>158.75476074219</ele>
        <time>2015-03-28T09:54:59Z</time>
      </trkpt>
      <trkpt lat="44.22074" lon="0.68296">
        <ele>158.75476074219</ele>
        <time>2015-03-28T09:55:10Z</time>
      </trkpt>
      <trkpt lat="44.22077" lon="0.68297">
        <ele>158.75476074219</ele>
        <time>2015-03-28T09:55:12Z</time>
      </trkpt>
      <trkpt lat="44.2209" lon="0.68305">
        <ele>160.19689941406</ele>
        <time>2015-03-28T09:55:26Z</time>
      </trkpt>
      <trkpt lat="44.22098" lon="0.68314">
        <ele>158.27416992188</ele>
        <time>2015-03-28T09:55:40Z</time>
      </trkpt>
      <trkpt lat="44.22098" lon="0.68318">
        <ele>156.83215332031</ele>
        <time>2015-03-28T09:55:43Z</time>
      </trkpt>
      <trkpt lat="44.22102" lon="0.6833">
        <ele>155.87097167969</ele>
        <time>2015-03-28T09:55:57Z</time>
      </trkpt>
      <trkpt lat="44.22105" lon="0.68348">
        <ele>156.3515625</ele>
        <time>2015-03-28T09:56:08Z</time>
      </trkpt>
      <trkpt lat="44.22106" lon="0.68364">
        <ele>155.87097167969</ele>
        <time>2015-03-28T09:56:20Z</time>
      </trkpt>
      <trkpt lat="44.22106" lon="0.68367">
        <ele>156.3515625</ele>
        <time>2015-03-28T09:56:23Z</time>
      </trkpt>
      <trkpt lat="44.22103" lon="0.68377">
        <ele>154.90954589844</ele>
        <time>2015-03-28T09:56:32Z</time>
      </trkpt>
      <trkpt lat="44.22096" lon="0.68381">
        <ele>152.98693847656</ele>
        <time>2015-03-28T09:56:40Z</time>
      </trkpt>
      <trkpt lat="44.2209" lon="0.68386">
        <ele>152.02575683594</ele>
        <time>2015-03-28T09:56:54Z</time>
      </trkpt>
      <trkpt lat="44.22088" lon="0.68399">
        <ele>152.98693847656</ele>
        <time>2015-03-28T09:57:07Z</time>
      </trkpt>
      <trkpt lat="44.22089" lon="0.68406">
        <ele>152.50634765625</ele>
        <time>2015-03-28T09:57:14Z</time>
      </trkpt>
      <trkpt lat="44.22092" lon="0.68414">
        <ele>152.02575683594</ele>
        <time>2015-03-28T09:57:28Z</time>
      </trkpt>
      <trkpt lat="44.22098" lon="0.6841">
        <ele>149.62231445312</ele>
        <time>2015-03-28T09:58:02Z</time>
      </trkpt>
      <trkpt lat="44.22102" lon="0.68407">
        <ele>150.58361816406</ele>
        <time>2015-03-28T09:58:04Z</time>
      </trkpt>
      <trkpt lat="44.22107" lon="0.68407">
        <ele>151.06420898438</ele>
        <time>2015-03-28T09:58:13Z</time>
      </trkpt>
      <trkpt lat="44.22117" lon="0.68409">
        <ele>152.98693847656</ele>
        <time>2015-03-28T09:58:28Z</time>
      </trkpt>
      <trkpt lat="44.22117" lon="0.68406">
        <ele>152.98693847656</ele>
        <time>2015-03-28T09:58:33Z</time>
      </trkpt>
      <trkpt lat="44.22115" lon="0.68395">
        <ele>154.42895507812</ele>
        <time>2015-03-28T09:58:49Z</time>
      </trkpt>
      <trkpt lat="44.22123" lon="0.68385">
        <ele>153.94836425781</ele>
        <time>2015-03-28T09:59:01Z</time>
      </trkpt>
      <trkpt lat="44.22123" lon="0.68361">
        <ele>150.58361816406</ele>
        <time>2015-03-28T09:59:17Z</time>
      </trkpt>
      <trkpt lat="44.22124" lon="0.68347">
        <ele>146.2578125</ele>
        <time>2015-03-28T09:59:28Z</time>
      </trkpt>
      <trkpt lat="44.22121" lon="0.68327">
        <ele>140.97045898438</ele>
        <time>2015-03-28T09:59:44Z</time>
      </trkpt>
      <trkpt lat="44.22122" lon="0.6831">
        <ele>140.00915527344</ele>
        <time>2015-03-28T09:59:58Z</time>
      </trkpt>
      <trkpt lat="44.22124" lon="0.683">
        <ele>140.00915527344</ele>
        <time>2015-03-28T10:00:09Z</time>
      </trkpt>
      <trkpt lat="44.22131" lon="0.68285">
        <ele>138.56726074219</ele>
        <time>2015-03-28T10:00:25Z</time>
      </trkpt>
      <trkpt lat="44.22133" lon="0.68279">
        <ele>137.60583496094</ele>
        <time>2015-03-28T10:00:28Z</time>
      </trkpt>
      <trkpt lat="44.22135" lon="0.68275">
        <ele>137.60583496094</ele>
        <time>2015-03-28T10:00:32Z</time>
      </trkpt>
      <trkpt lat="44.22134" lon="0.68269">
        <ele>137.60583496094</ele>
        <time>2015-03-28T10:00:36Z</time>
      </trkpt>
      <trkpt lat="44.2214" lon="0.68248">
        <ele>138.08654785156</ele>
        <time>2015-03-28T10:00:53Z</time>
      </trkpt>
      <trkpt lat="44.22154" lon="0.68244">
        <ele>136.64465332031</ele>
        <time>2015-03-28T10:01:17Z</time>
      </trkpt>
      <trkpt lat="44.22155" lon="0.68243">
        <ele>136.64465332031</ele>
        <time>2015-03-28T10:01:18Z</time>
      </trkpt>
      <trkpt lat="44.22164" lon="0.68229">
        <ele>134.2412109375</ele>
        <time>2015-03-28T10:01:35Z</time>
      </trkpt>
      <trkpt lat="44.22166" lon="0.68223">
        <ele>131.837890625</ele>
        <time>2015-03-28T10:01:51Z</time>
      </trkpt>
      <trkpt lat="44.22177" lon="0.68203">
        <ele>130.87670898438</ele>
        <time>2015-03-28T10:02:06Z</time>
      </trkpt>
      <trkpt lat="44.22178" lon="0.68202">
        <ele>130.39599609375</ele>
        <time>2015-03-28T10:02:07Z</time>
      </trkpt>
      <trkpt lat="44.22193" lon="0.68188">
        <ele>131.837890625</ele>
        <time>2015-03-28T10:02:20Z</time>
      </trkpt>
      <trkpt lat="44.22194" lon="0.68186">
        <ele>132.31860351562</ele>
        <time>2015-03-28T10:02:23Z</time>
      </trkpt>
      <trkpt lat="44.22195" lon="0.68182">
        <ele>133.76049804688</ele>
        <time>2015-03-28T10:02:26Z</time>
      </trkpt>
      <trkpt lat="44.22201" lon="0.68174">
        <ele>135.68310546875</ele>
        <time>2015-03-28T10:02:37Z</time>
      </trkpt>
      <trkpt lat="44.22206" lon="0.68166">
        <ele>138.08654785156</ele>
        <time>2015-03-28T10:02:50Z</time>
      </trkpt>
      <trkpt lat="44.22208" lon="0.68164">
        <ele>138.08654785156</ele>
        <time>2015-03-28T10:02:52Z</time>
      </trkpt>
      <trkpt lat="44.22212" lon="0.6816">
        <ele>138.08654785156</ele>
        <time>2015-03-28T10:02:55Z</time>
      </trkpt>
      <trkpt lat="44.22215" lon="0.68155">
        <ele>141.45104980469</ele>
        <time>2015-03-28T10:03:02Z</time>
      </trkpt>
      <trkpt lat="44.22219" lon="0.68144">
        <ele>142.41247558594</ele>
        <time>2015-03-28T10:03:10Z</time>
      </trkpt>
      <trkpt lat="44.2223" lon="0.68135">
        <ele>142.89306640625</ele>
        <time>2015-03-28T10:03:24Z</time>
      </trkpt>
      <trkpt lat="44.22233" lon="0.68133">
        <ele>143.37365722656</ele>
        <time>2015-03-28T10:03:27Z</time>
      </trkpt>
      <trkpt lat="44.22249" lon="0.68115">
        <ele>144.33520507812</ele>
        <time>2015-03-28T10:03:47Z</time>
      </trkpt>
      <trkpt lat="44.22251" lon="0.68107">
        <ele>143.85437011719</ele>
        <time>2015-03-28T10:03:55Z</time>
      </trkpt>
      <trkpt lat="44.22264" lon="0.68096">
        <ele>139.52844238281</ele>
        <time>2015-03-28T10:04:08Z</time>
      </trkpt>
      <trkpt lat="44.22272" lon="0.68086">
        <ele>136.64465332031</ele>
        <time>2015-03-28T10:04:21Z</time>
      </trkpt>
      <trkpt lat="44.22275" lon="0.68075">
        <ele>128.9541015625</ele>
        <time>2015-03-28T10:04:38Z</time>
      </trkpt>
      <trkpt lat="44.22282" lon="0.68064">
        <ele>124.14733886719</ele>
        <time>2015-03-28T10:04:54Z</time>
      </trkpt>
      <trkpt lat="44.22292" lon="0.68048">
        <ele>119.82141113281</ele>
        <time>2015-03-28T10:05:14Z</time>
      </trkpt>
      <trkpt lat="44.22297" lon="0.68038">
        <ele>117.41821289062</ele>
        <time>2015-03-28T10:05:27Z</time>
      </trkpt>
      <trkpt lat="44.22304" lon="0.68034">
        <ele>116.45678710938</ele>
        <time>2015-03-28T10:05:43Z</time>
      </trkpt>
      <trkpt lat="44.22312" lon="0.68032">
        <ele>114.05358886719</ele>
        <time>2015-03-28T10:05:50Z</time>
      </trkpt>
      <trkpt lat="44.22323" lon="0.68026">
        <ele>112.13098144531</ele>
        <time>2015-03-28T10:06:04Z</time>
      </trkpt>
      <trkpt lat="44.22336" lon="0.68013">
        <ele>108.76623535156</ele>
        <time>2015-03-28T10:06:21Z</time>
      </trkpt>
      <trkpt lat="44.22347" lon="0.68">
        <ele>106.36303710938</ele>
        <time>2015-03-28T10:06:36Z</time>
      </trkpt>
      <trkpt lat="44.22359" lon="0.6798">
        <ele>102.99829101562</ele>
        <time>2015-03-28T10:06:57Z</time>
      </trkpt>
      <trkpt lat="44.22373" lon="0.67965">
        <ele>99.153076171875</ele>
        <time>2015-03-28T10:07:13Z</time>
      </trkpt>
      <trkpt lat="44.22383" lon="0.67952">
        <ele>96.269287109375</ele>
        <time>2015-03-28T10:07:30Z</time>
      </trkpt>
      <trkpt lat="44.22397" lon="0.67953">
        <ele>96.749877929688</ele>
        <time>2015-03-28T10:07:45Z</time>
      </trkpt>
      <trkpt lat="44.22404" lon="0.67954">
        <ele>95.788452148438</ele>
        <time>2015-03-28T10:07:52Z</time>
      </trkpt>
      <trkpt lat="44.22418" lon="0.67959">
        <ele>93.385131835938</ele>
        <time>2015-03-28T10:08:07Z</time>
      </trkpt>
      <trkpt lat="44.2244" lon="0.67963">
        <ele>91.462524414062</ele>
        <time>2015-03-28T10:08:31Z</time>
      </trkpt>
      <trkpt lat="44.22457" lon="0.67964">
        <ele>89.059326171875</ele>
        <time>2015-03-28T10:08:48Z</time>
      </trkpt>
      <trkpt lat="44.22473" lon="0.67966">
        <ele>89.059326171875</ele>
        <time>2015-03-28T10:09:05Z</time>
      </trkpt>
      <trkpt lat="44.2249" lon="0.6797">
        <ele>89.059326171875</ele>
        <time>2015-03-28T10:09:22Z</time>
      </trkpt>
      <trkpt lat="44.22505" lon="0.67973">
        <ele>87.6171875</ele>
        <time>2015-03-28T10:09:36Z</time>
      </trkpt>
      <trkpt lat="44.22525" lon="0.67974">
        <ele>86.656005859375</ele>
        <time>2015-03-28T10:09:57Z</time>
      </trkpt>
      <trkpt lat="44.22538" lon="0.67974">
        <ele>86.656005859375</ele>
        <time>2015-03-28T10:10:12Z</time>
      </trkpt>
      <trkpt lat="44.22554" lon="0.67971">
        <ele>82.330078125</ele>
        <time>2015-03-28T10:10:29Z</time>
      </trkpt>
      <trkpt lat="44.22564" lon="0.67965">
        <ele>76.562133789062</ele>
        <time>2015-03-28T10:10:42Z</time>
      </trkpt>
      <trkpt lat="44.22574" lon="0.67961">
        <ele>74.639526367188</ele>
        <time>2015-03-28T10:10:53Z</time>
      </trkpt>
      <trkpt lat="44.22586" lon="0.67953">
        <ele>76.562133789062</ele>
        <time>2015-03-28T10:11:07Z</time>
      </trkpt>
      <trkpt lat="44.22597" lon="0.67948">
        <ele>78.004028320312</ele>
        <time>2015-03-28T10:11:25Z</time>
      </trkpt>
      <trkpt lat="44.22601" lon="0.67944">
        <ele>78.484741210938</ele>
        <time>2015-03-28T10:11:39Z</time>
      </trkpt>
      <trkpt lat="44.22606" lon="0.67941">
        <ele>78.965454101562</ele>
        <time>2015-03-28T10:11:50Z</time>
      </trkpt>
      <trkpt lat="44.22614" lon="0.67947">
        <ele>78.484741210938</ele>
        <time>2015-03-28T10:12:03Z</time>
      </trkpt>
      <trkpt lat="44.22615" lon="0.67951">
        <ele>78.484741210938</ele>
        <time>2015-03-28T10:12:07Z</time>
      </trkpt>
      <trkpt lat="44.22616" lon="0.67957">
        <ele>78.484741210938</ele>
        <time>2015-03-28T10:12:12Z</time>
      </trkpt>
      <trkpt lat="44.22625" lon="0.67979">
        <ele>72.716918945312</ele>
        <time>2015-03-28T10:12:32Z</time>
      </trkpt>
      <trkpt lat="44.22633" lon="0.68011">
        <ele>70.3134765625</ele>
        <time>2015-03-28T10:12:54Z</time>
      </trkpt>
      <trkpt lat="44.2264" lon="0.68032">
        <ele>72.716918945312</ele>
        <time>2015-03-28T10:13:11Z</time>
      </trkpt>
      <trkpt lat="44.22652" lon="0.68041">
        <ele>74.158813476562</ele>
        <time>2015-03-28T10:13:26Z</time>
      </trkpt>
      <trkpt lat="44.22663" lon="0.68048">
        <ele>76.562133789062</ele>
        <time>2015-03-28T10:13:42Z</time>
      </trkpt>
      <trkpt lat="44.22675" lon="0.68055">
        <ele>79.926635742188</ele>
        <time>2015-03-28T10:14:01Z</time>
      </trkpt>
      <trkpt lat="44.22687" lon="0.68062">
        <ele>85.213989257812</ele>
        <time>2015-03-28T10:14:21Z</time>
      </trkpt>
      <trkpt lat="44.22703" lon="0.68072">
        <ele>87.6171875</ele>
        <time>2015-03-28T10:14:42Z</time>
      </trkpt>
      <trkpt lat="44.22726" lon="0.68084">
        <ele>95.788452148438</ele>
        <time>2015-03-28T10:15:10Z</time>
      </trkpt>
      <trkpt lat="44.22743" lon="0.68088">
        <ele>99.6337890625</ele>
        <time>2015-03-28T10:15:26Z</time>
      </trkpt>
      <trkpt lat="44.22756" lon="0.68102">
        <ele>99.6337890625</ele>
        <time>2015-03-28T10:15:41Z</time>
      </trkpt>
      <trkpt lat="44.22768" lon="0.68108">
        <ele>103.47900390625</ele>
        <time>2015-03-28T10:15:53Z</time>
      </trkpt>
      <trkpt lat="44.22778" lon="0.68124">
        <ele>107.80505371094</ele>
        <time>2015-03-28T10:16:12Z</time>
      </trkpt>
      <trkpt lat="44.22796" lon="0.68147">
        <ele>111.16955566406</ele>
        <time>2015-03-28T10:16:36Z</time>
      </trkpt>
      <trkpt lat="44.228" lon="0.68155">
        <ele>112.61157226562</ele>
        <time>2015-03-28T10:16:44Z</time>
      </trkpt>
      <trkpt lat="44.22813" lon="0.68161">
        <ele>109.24694824219</ele>
        <time>2015-03-28T10:16:59Z</time>
      </trkpt>
      <trkpt lat="44.22815" lon="0.68161">
        <ele>108.76623535156</ele>
        <time>2015-03-28T10:17:02Z</time>
      </trkpt>
      <trkpt lat="44.22823" lon="0.68149">
        <ele>104.4404296875</ele>
        <time>2015-03-28T10:17:18Z</time>
      </trkpt>
      <trkpt lat="44.22836" lon="0.68151">
        <ele>97.23046875</ele>
        <time>2015-03-28T10:17:30Z</time>
      </trkpt>
      <trkpt lat="44.22838" lon="0.68154">
        <ele>93.865844726562</ele>
        <time>2015-03-28T10:17:39Z</time>
      </trkpt>
      <trkpt lat="44.22848" lon="0.68172">
        <ele>90.020629882812</ele>
        <time>2015-03-28T10:17:55Z</time>
      </trkpt>
      <trkpt lat="44.22852" lon="0.68184">
        <ele>88.098022460938</ele>
        <time>2015-03-28T10:18:07Z</time>
      </trkpt>
      <trkpt lat="44.2286" lon="0.68195">
        <ele>86.17529296875</ele>
        <time>2015-03-28T10:18:16Z</time>
      </trkpt>
      <trkpt lat="44.2287" lon="0.68216">
        <ele>85.213989257812</ele>
        <time>2015-03-28T10:18:34Z</time>
      </trkpt>
      <trkpt lat="44.22882" lon="0.68248">
        <ele>85.694580078125</ele>
        <time>2015-03-28T10:18:59Z</time>
      </trkpt>
      <trkpt lat="44.22898" lon="0.68269">
        <ele>84.7333984375</ele>
        <time>2015-03-28T10:19:19Z</time>
      </trkpt>
      <trkpt lat="44.22904" lon="0.68273">
        <ele>83.291381835938</ele>
        <time>2015-03-28T10:19:24Z</time>
      </trkpt>
      <trkpt lat="44.22913" lon="0.68284">
        <ele>80.88818359375</ele>
        <time>2015-03-28T10:19:34Z</time>
      </trkpt>
      <trkpt lat="44.22915" lon="0.68292">
        <ele>81.368774414062</ele>
        <time>2015-03-28T10:19:38Z</time>
      </trkpt>
      <trkpt lat="44.2293" lon="0.68326">
        <ele>80.88818359375</ele>
        <time>2015-03-28T10:20:00Z</time>
      </trkpt>
      <trkpt lat="44.22932" lon="0.6833">
        <ele>80.88818359375</ele>
        <time>2015-03-28T10:20:03Z</time>
      </trkpt>
      <trkpt lat="44.22936" lon="0.68333">
        <ele>80.407470703125</ele>
        <time>2015-03-28T10:20:06Z</time>
      </trkpt>
      <trkpt lat="44.22944" lon="0.68352">
        <ele>83.291381835938</ele>
        <time>2015-03-28T10:20:21Z</time>
      </trkpt>
      <trkpt lat="44.22949" lon="0.68363">
        <ele>83.291381835938</ele>
        <time>2015-03-28T10:20:30Z</time>
      </trkpt>
      <trkpt lat="44.22971" lon="0.68368">
        <ele>82.330078125</ele>
        <time>2015-03-28T10:20:50Z</time>
      </trkpt>
      <trkpt lat="44.22977" lon="0.68369">
        <ele>81.849365234375</ele>
        <time>2015-03-28T10:20:55Z</time>
      </trkpt>
      <trkpt lat="44.22979" lon="0.6837">
        <ele>80.88818359375</ele>
        <time>2015-03-28T10:20:57Z</time>
      </trkpt>
      <trkpt lat="44.22994" lon="0.68368">
        <ele>78.965454101562</ele>
        <time>2015-03-28T10:21:11Z</time>
      </trkpt>
      <trkpt lat="44.2302" lon="0.68363">
        <ele>78.004028320312</ele>
        <time>2015-03-28T10:21:30Z</time>
      </trkpt>
      <trkpt lat="44.23037" lon="0.68355">
        <ele>78.484741210938</ele>
        <time>2015-03-28T10:21:45Z</time>
      </trkpt>
      <trkpt lat="44.23042" lon="0.68355">
        <ele>78.965454101562</ele>
        <time>2015-03-28T10:21:49Z</time>
      </trkpt>
      <trkpt lat="44.23056" lon="0.6836">
        <ele>77.042846679688</ele>
        <time>2015-03-28T10:22:03Z</time>
      </trkpt>
      <trkpt lat="44.23061" lon="0.68353">
        <ele>75.600830078125</ele>
        <time>2015-03-28T10:22:11Z</time>
      </trkpt>
      <trkpt lat="44.23069" lon="0.68341">
        <ele>76.081420898438</ele>
        <time>2015-03-28T10:22:19Z</time>
      </trkpt>
      <trkpt lat="44.2308" lon="0.68322">
        <ele>78.004028320312</ele>
        <time>2015-03-28T10:22:35Z</time>
      </trkpt>
      <trkpt lat="44.23093" lon="0.68312">
        <ele>78.484741210938</ele>
        <time>2015-03-28T10:22:51Z</time>
      </trkpt>
      <trkpt lat="44.23107" lon="0.68296">
        <ele>76.081420898438</ele>
        <time>2015-03-28T10:23:08Z</time>
      </trkpt>
      <trkpt lat="44.23116" lon="0.68289">
        <ele>75.120239257812</ele>
        <time>2015-03-28T10:23:22Z</time>
      </trkpt>
      <trkpt lat="44.23119" lon="0.68278">
        <ele>77.042846679688</ele>
        <time>2015-03-28T10:23:29Z</time>
      </trkpt>
      <trkpt lat="44.23123" lon="0.6827">
        <ele>76.562133789062</ele>
        <time>2015-03-28T10:23:34Z</time>
      </trkpt>
      <trkpt lat="44.23121" lon="0.6826">
        <ele>77.5234375</ele>
        <time>2015-03-28T10:23:42Z</time>
      </trkpt>
      <trkpt lat="44.23129" lon="0.68236">
        <ele>69.832885742188</ele>
        <time>2015-03-28T10:24:04Z</time>
      </trkpt>
      <trkpt lat="44.2313" lon="0.68235">
        <ele>69.352294921875</ele>
        <time>2015-03-28T10:24:05Z</time>
      </trkpt>
      <trkpt lat="44.23144" lon="0.68241">
        <ele>65.0263671875</ele>
        <time>2015-03-28T10:24:19Z</time>
      </trkpt>
      <trkpt lat="44.23147" lon="0.68241">
        <ele>64.065063476562</ele>
        <time>2015-03-28T10:24:22Z</time>
      </trkpt>
      <trkpt lat="44.2315" lon="0.6824">
        <ele>62.622924804688</ele>
        <time>2015-03-28T10:24:24Z</time>
      </trkpt>
      <trkpt lat="44.23157" lon="0.68243">
        <ele>59.258422851562</ele>
        <time>2015-03-28T10:24:32Z</time>
      </trkpt>
      <trkpt lat="44.23169" lon="0.68246">
        <ele>54.451782226562</ele>
        <time>2015-03-28T10:24:47Z</time>
      </trkpt>
      <trkpt lat="44.23182" lon="0.68236">
        <ele>56.37451171875</ele>
        <time>2015-03-28T10:25:02Z</time>
      </trkpt>
      <trkpt lat="44.23188" lon="0.68233">
        <ele>58.297119140625</ele>
        <time>2015-03-28T10:25:08Z</time>
      </trkpt>
      <trkpt lat="44.2321" lon="0.68229">
        <ele>57.816528320312</ele>
        <time>2015-03-28T10:25:30Z</time>
      </trkpt>
      <trkpt lat="44.23223" lon="0.68226">
        <ele>59.258422851562</ele>
        <time>2015-03-28T10:25:45Z</time>
      </trkpt>
      <trkpt lat="44.2324" lon="0.68224">
        <ele>59.739135742188</ele>
        <time>2015-03-28T10:26:02Z</time>
      </trkpt>
      <trkpt lat="44.23246" lon="0.68227">
        <ele>58.297119140625</ele>
        <time>2015-03-28T10:26:09Z</time>
      </trkpt>
      <trkpt lat="44.23253" lon="0.68238">
        <ele>58.777709960938</ele>
        <time>2015-03-28T10:26:24Z</time>
      </trkpt>
      <trkpt lat="44.23252" lon="0.68246">
        <ele>59.258422851562</ele>
        <time>2015-03-28T10:26:29Z</time>
      </trkpt>
    </trkseg>
  </trk>
</gpx>